Latest Coastal Weather Observations for Hervey Bay

IDQ60701

Issued at 4:01 pm EST Tuesday 31 May 2016 (issued every 10 minutes, with the page automatically refreshed every 10 minutes)

About coastal observations | Map of coastal stations | Coastal observations for QLD | Marine services | Other Formats
Station Details ID: 040405 Name: HERVEY BAY AIRPORT Lat: -25.32 Lon: 152.88 Height: 12.98 m
Data from the previous 72 hours. | See also: Recent months at Hervey Bay
Date/Time
EST
Temp

°C
Wind Pressure Rain
since 9am
mm
Weather Cloud Vis
km
Sea
Height
m
Swell
Dir
 
Speed
knots
Gust
knots
hPa Trend Height
m
Period
s
Dir
31/04:00pm 22.5 ESE 10 12 1022.3 - 0.0 - - 10 - - - -
31/03:30pm 23.4 E 9 12 1022.6 - 0.0 - - 10 - - - -
31/03:00pm 23.5 ESE 10 13 1022.6 - 0.0 - - 10 - - - -
31/02:30pm 24.1 E 9 12 1022.6 - 0.0 - - 10 - - - -
31/02:00pm 24.0 E 10 13 1022.5 - 0.0 - - 10 - - - -
31/01:30pm 24.2 E 11 15 1022.5 - 0.0 - - 10 - - - -
31/01:00pm 24.8 ESE 9 14 1022.9 - 0.0 - - 10 - - - -
31/12:30pm 24.6 ESE 11 13 1023.4 - 0.0 - - 10 - - - -
31/12:00pm 24.4 ESE 9 13 1023.8 - 0.0 - - 10 - - - -
31/11:30am 24.2 ESE 8 13 1024.1 - 0.0 - Partly cloudy 10 - - - -
31/11:00am 24.4 E 8 11 1024.5 - 0.0 - Partly cloudy 10 - - - -
31/10:30am 23.7 E 7 10 1024.8 - 0.0 - - 10 - - - -
31/10:00am 23.0 ESE 6 10 1025.1 - 0.0 - - 10 - - - -
31/09:30am 20.4 SSW 5 7 1025.2 - 0.0 - - 10 - - - -
31/09:00am 17.5 SSW 6 7 1025.3 - 0.0 - - 10 - - - -
31/08:30am 16.3 SSW 5 6 1025.2 - 0.0 - - 10 - - - -
31/08:00am 14.7 SW 3 5 1024.9 - 0.0 - - 10 - - - -
31/07:30am 13.0 SW 5 7 1025.0 - 0.0 - - 10 - - - -
31/07:00am 11.8 SW 5 6 1024.7 - 0.0 - - 10 - - - -
31/06:30am 8.5 SW 3 4 1024.1 - 0.0 - - 10 - - - -
31/06:00am 9.1 SSW 1 3 1023.6 - 0.0 - - 10 - - - -
31/05:30am 8.5 SW 3 4 1023.5 - 0.0 - - 10 - - - -
31/05:00am 9.0 CALM 0 0 1023.2 - 0.0 - - 10 - - - -
31/04:30am 9.8 SW 4 4 1023.2 - 0.0 - - 10 - - - -
31/04:00am 8.9 SSW 4 5 1022.9 - 0.0 - - 10 - - - -
31/03:30am 9.3 SW 1 3 1023.0 - 0.0 - - 10 - - - -
31/03:00am 10.0 WSW 1 4 1023.0 - 0.0 - - 10 - - - -
31/02:30am 10.7 SSW 4 6 1022.8 - 0.0 - - 10 - - - -
31/02:00am 9.8 SSW 5 6 1023.0 - 0.0 - - 10 - - - -
31/01:30am 11.3 SW 2 4 1023.4 - 0.0 - - 10 - - - -
31/01:00am 10.7 CALM 0 0 1023.4 - 0.0 - - 10 - - - -
31/12:30am 10.5 SSW 5 6 1023.4 - 0.0 - - 10 - - - -
31/12:00am 10.0 SSW 3 5 1023.6 - 0.0 - - 10 - - - -
 
Date/Time
EST
Temp

°C
Wind Pressure Rain
since 9am
mm
Weather Cloud Vis
km
Sea
Height
m
Swell
Dir
 
Speed
knots
Gust
knots
hPa Trend Height
m
Period
s
Dir
30/11:30pm 9.8 SSW 5 7 1023.6 - 0.0 - - 10 - - - -
30/11:00pm 10.0 SW 4 5 1023.5 - 0.0 - - 10 - - - -
30/10:30pm 10.2 SSW 3 5 1023.6 - 0.0 - - 10 - - - -
30/10:00pm 10.7 CALM 0 0 1023.6 - 0.0 - - 10 - - - -
30/09:30pm 11.3 SSW 1 3 1023.5 - 0.0 - - 10 - - - -
30/09:00pm 11.6 CALM 0 0 1023.4 - 0.0 - - 10 - - - -
30/08:30pm 12.5 CALM 0 0 1023.4 - 0.0 - - 10 - - - -
30/08:00pm 13.2 S 3 4 1023.1 - 0.0 - - 10 - - - -
30/07:30pm 16.1 ESE 5 6 1022.8 - 0.0 - - 10 - - - -
30/07:00pm 17.1 ESE 5 7 1022.5 - 0.0 - - 10 - - - -
30/06:30pm 17.7 SE 5 6 1022.3 - 0.0 - - 10 - - - -
30/06:00pm 18.9 SE 5 8 1022.1 - 0.0 - - 10 - - - -
30/05:30pm 19.4 SE 7 9 1021.8 - 0.0 - - 10 - - - -
30/05:00pm 20.0 SE 7 10 1021.5 - 0.0 - - 10 - - - -
30/04:30pm 21.1 SE 7 9 1021.2 - 0.0 - - 10 - - - -
30/04:00pm 21.9 ESE 7 11 1020.9 - 0.0 - - 10 - - - -
30/03:30pm 22.6 ESE 7 10 1020.6 - 0.0 - - 10 - - - -
30/03:00pm 23.1 ESE 6 8 1020.6 - 0.0 - - 10 - - - -
30/02:30pm 23.6 E 5 8 1020.5 - 0.0 - - 10 - - - -
30/02:00pm 23.8 NE 4 9 1020.6 - 0.0 - - 10 - - - -
30/01:30pm 23.2 ENE 8 11 1020.8 - 0.0 - - 10 - - - -
30/01:00pm 23.4 ENE 7 11 1021.0 - 0.0 - - 10 - - - -
30/12:30pm 23.3 NE 7 10 1021.2 - 0.0 - - 10 - - - -
30/12:00pm 23.1 ESE 6 9 1021.7 - 0.0 - - 10 - - - -
30/11:30am 22.6 ESE 4 9 1022.2 - 0.0 - - 10 - - - -
30/11:00am 22.1 S 6 9 1022.6 - 0.0 - - 10 - - - -
30/10:30am 20.9 SSW 6 8 1022.9 - 0.0 - - 10 - - - -
30/10:00am 19.7 SSW 7 9 1023.0 - 0.0 - - 10 - - - -
30/09:30am 18.0 SSW 8 11 1023.2 - 0.0 - - 10 - - - -
30/09:00am 16.4 SSW 6 9 1023.1 - 0.0 - - 10 - - - -
30/08:30am 14.2 SSW 6 8 1023.0 - 0.0 - - 10 - - - -
30/08:00am 12.2 SSW 7 8 1022.6 - 0.0 - - 10 - - - -
30/07:30am 10.7 SW 6 8 1022.5 - 0.0 - - 10 - - - -
30/07:00am 7.4 SSW 5 7 1022.0 - 0.0 - - 10 - - - -
30/06:30am 5.4 SSW 5 6 1021.6 - 0.0 - - 10 - - - -
30/06:00am 5.2 SSW 4 5 1021.3 - 0.0 - - 10 - - - -
30/05:30am 5.0 SSW 4 4 1021.0 - 0.0 - - 10 - - - -
30/05:00am 5.3 SSW 5 6 1020.6 - 0.0 - - 10 - - - -
30/04:30am 5.0 SW 4 5 1020.5 - 0.0 - - 10 - - - -
30/04:00am 5.3 SW 3 4 1020.2 - 0.0 - - 10 - - - -
30/03:30am 5.5 SW 4 5 1020.2 - 0.0 - - 10 - - - -
30/03:00am 5.3 SW 5 6 1020.1 - 0.0 - - 10 - - - -
30/02:30am 5.7 SW 3 4 1020.0 - 0.0 - - 10 - - - -
30/02:00am 5.6 CALM 0 0 1020.0 - 0.0 - - 10 - - - -
30/01:30am 6.0 CALM 0 0 1019.9 - 0.0 - - 10 - - - -
30/01:00am 6.3 CALM 0 0 1020.0 - 0.0 - - 10 - - - -
30/12:30am 6.9 CALM 0 0 1020.1 - 0.0 - - 10 - - - -
30/12:00am 6.8 SW 2 4 1020.0 - 0.0 - - 10 - - - -
 
Date/Time
EST
Temp

°C
Wind Pressure Rain
since 9am
mm
Weather Cloud Vis
km
Sea
Height
m
Swell
Dir
 
Speed
knots
Gust
knots
hPa Trend Height
m
Period
s
Dir
29/11:30pm 7.3 CALM 0 0 1020.2 - 0.0 - - 10 - - - -
29/11:00pm 7.5 CALM 0 1 1020.4 - 0.0 - - 10 - - - -
29/10:30pm 8.0 SW 2 4 1020.6 - 0.0 - - 10 - - - -
29/10:00pm 8.6 WSW 1 4 1020.6 - 0.0 - - 10 - - - -
29/09:30pm 8.8 CALM 0 0 1020.6 - 0.0 - - 10 - - - -
29/09:00pm 8.8 CALM 0 0 1020.3 - 0.0 - - 10 - - - -
29/08:30pm 9.4 CALM 0 0 1020.0 - 0.0 - - 10 - - - -
29/08:00pm 9.6 CALM 0 0 1019.7 - 0.0 - - 10 - - - -
29/07:30pm 9.8 CALM 0 0 1019.4 - 0.0 - - 10 - - - -
29/07:00pm 10.5 CALM 0 0 1019.0 - 0.0 - - 10 - - - -
29/06:30pm 11.5 CALM 0 0 1018.7 - 0.0 - - 10 - - - -
29/06:00pm 12.5 S 3 4 1018.4 - 0.0 - - 10 - - - -
29/05:30pm 14.5 CALM 0 0 1018.1 - 0.0 - - 10 - - - -
29/05:00pm 18.0 N 1 4 1017.7 - 0.0 - - 10 - - - -
29/04:30pm 20.6 N 5 7 1017.5 - 0.0 - - 10 - - - -
29/04:00pm 21.7 NNE 6 7 1017.1 - 0.0 - - 10 - - - -
29/03:30pm 21.6 NE 7 8 1016.9 - 0.0 - - 10 - - - -
29/03:00pm 21.5 NE 7 9 1016.7 - 0.0 - - 10 - - - -
29/02:30pm 21.1 NE 7 11 1016.6 - 0.0 - - 10 - - - -
29/02:00pm 21.9 E 9 11 1016.3 - 0.0 - - 10 - - - -
29/01:30pm 21.2 ESE 8 11 1016.6 - 0.0 - - 10 - - - -
29/01:00pm 20.5 E 9 11 1016.7 - 0.0 - - 10 - - - -
29/12:30pm 20.4 E 7 9 1017.0 - 0.0 - - 10 - - - -
29/12:00pm 21.0 SSW 4 8 1017.5 - 0.0 - - 10 - - - -
29/11:30am 20.1 S 7 13 1018.1 - 0.0 - - 10 - - - -
29/11:00am 19.8 SSW 7 12 1018.4 - 0.0 - - 10 - - - -
29/10:30am 19.0 SSW 8 11 1018.8 - 0.0 - - 10 - - - -
29/10:00am 18.5 SSW 9 13 1019.3 - 0.0 - - 10 - - - -
29/09:30am 17.9 SSW 8 11 1019.2 - 0.0 - - 10 - - - -
29/09:00am 16.8 SW 7 9 1019.2 - 0.0 - - 10 - - - -
29/08:30am 15.7 SW 7 10 1019.1 - 0.0 - - 10 - - - -
29/08:00am 14.4 SSW 5 6 1018.7 - 0.0 - - 10 - - - -
29/07:30am 13.0 SSW 3 5 1018.7 - 0.0 - - 10 - - - -
29/07:00am 11.7 SW 5 9 1018.3 - 0.0 - - 10 - - - -
29/06:47am 10.6 SW 7 9 1018.2 - 0.0 - - 10 - - - -
29/06:30am 5.6 WSW 5 6 1018.1 - 0.0 - - 10 - - - -
29/06:00am 5.6 SW 5 6 1017.7 - 0.0 - - 10 - - - -
29/05:30am 6.3 SW 5 6 1017.4 - 0.0 - - 10 - - - -
29/05:00am 6.1 SW 6 6 1017.0 - 0.0 - - 10 - - - -
29/04:30am 5.5 WSW 2 4 1017.1 - 0.0 - - 10 - - - -
29/04:00am 5.8 CALM 0 0 1016.9 - 0.0 - - 10 - - - -
29/03:30am 5.8 SSW 3 4 1016.7 - 0.0 - - 10 - - - -
29/03:00am 6.3 CALM 0 0 1016.4 - 0.0 - - 10 - - - -
29/02:30am 6.7 SW 3 4 1016.2 - 0.0 - - 10 - - - -
29/02:00am 7.5 CALM 0 0 1016.2 - 0.0 - - 10 - - - -
29/01:30am 7.5 SW 3 5 1016.1 - 0.0 - - 10 - - - -
29/01:00am 8.1 SW 4 5 1016.1 - 0.0 - - 10 - - - -
29/12:30am 8.7 SW 3 4 1016.0 - 0.0 - - 10 - - - -
29/12:00am 9.3 SSW 4 5 1015.9 - 0.0 - - 10 - - - -
 
Date/Time
EST
Temp

°C
Wind Pressure Rain
since 9am
mm
Weather Cloud Vis
km
Sea
Height
m
Swell
Dir
 
Speed
knots
Gust
knots
hPa Trend Height
m
Period
s
Dir
28/11:30pm 9.8 WSW 3 4 1016.1 - 0.0 - - 10 - - - -
28/11:00pm 11.1 SSW 4 5 1016.2 - 0.0 - - 10 - - - -
28/10:30pm 12.8 SW 4 5 1016.3 - 0.0 - - 10 - - - -
28/10:00pm 16.2 WSW 5 6 1016.2 - 0.0 - - 10 - - - -
28/09:30pm 18.7 SW 7 10 1015.9 - 0.0 - - 10 - - - -
28/09:00pm 18.2 WSW 7 10 1015.6 - 0.0 - - 10 - - - -
28/08:30pm 18.3 W 7 9 1015.5 - 0.0 - - 10 - - - -
28/08:00pm 17.6 WSW 6 9 1015.1 - 0.0 - - 10 - - - -
28/07:30pm 16.7 WSW 7 9 1014.6 - 0.0 - - 10 - - - -
28/07:00pm 13.4 W 5 6 1014.4 - 0.0 - - 10 - - - -
28/06:30pm 14.5 W 4 5 1014.0 - 0.0 - - 10 - - - -
28/06:00pm 17.2 WNW 5 6 1013.4 - 0.0 - - 10 - - - -
28/05:30pm 20.0 WNW 6 7 1012.8 - 0.0 - - 10 - - - -
28/05:00pm 21.4 WNW 6 9 1012.3 - 0.0 - - 10 - - - -
28/04:30pm 23.0 WNW 5 7 1012.1 - 0.0 - - 10 - - - -

Other Formats:

Comma delimited format used in spreadsheet applications
http://www.bom.gov.au/fwo/IDQ60701/IDQ60701.95565.axf

JavaScript Object Notation format (JSON) in row-major order
http://www.bom.gov.au/fwo/IDQ60701/IDQ60701.95565.json